Time;durP1;ratioP1;P1;durP2;ratioP2;P2;SDS_P1;SDS_P2;PMS_P1;PMS_P2;Temp;Humidity;BMP_temperature;BMP_pressure;BME280_temperature;BME280_humidity;BME280_pressure;Samples;Min_cycle;Max_cycle;Signal;HPM_P1;HPM_P2
2021/08/15 00:02:16;;;;;;;8.34;5.94;;;;;;;17.97;89.86;99457.63;1985764;79;22983;-81
2021/08/15 00:05:19;;;;;;;7.30;6.16;;;;;;;17.95;89.71;99448.91;1986087;81;20840;-81
2021/08/15 00:08:22;;;;;;;6.47;5.88;;;;;;;17.89;89.82;99454.38;1985505;81;20579;-80
2021/08/15 00:11:24;;;;;;;7.03;6.14;;;;;;;17.85;90.15;99451.91;1983199;81;20193;-80
2021/08/15 00:14:27;;;;;;;8.06;6.11;;;;;;;17.84;90.16;99453.69;1985994;81;20415;-81
2021/08/15 00:17:29;;;;;;;8.44;5.49;;;;;;;17.81;90.41;99453.78;1984303;79;21392;-82
2021/08/15 00:20:32;;;;;;;5.88;5.29;;;;;;;17.80;90.36;99447.69;1985301;81;20254;-81
2021/08/15 00:23:35;;;;;;;6.22;5.40;;;;;;;17.78;90.38;99444.25;1986612;81;20200;-82
2021/08/15 00:26:37;;;;;;;6.14;5.25;;;;;;;17.79;90.27;99445.09;1985444;82;21034;-81
2021/08/15 00:29:40;;;;;;;8.05;5.71;;;;;;;17.73;90.06;99438.25;1986155;81;20172;-80
2021/08/15 00:32:45;;;;;;;6.16;5.55;;;;;;;17.63;90.26;99435.97;1983593;81;22561;-81
2021/08/15 00:35:47;;;;;;;11.35;5.86;;;;;;;17.62;90.21;99431.63;1989224;81;20247;-81
2021/08/15 00:38:50;;;;;;;6.46;5.14;;;;;;;17.58;90.13;99436.09;1990876;81;20184;-80
2021/08/15 00:41:53;;;;;;;5.72;5.22;;;;;;;17.56;90.14;99427.41;1990961;81;20707;-81
2021/08/15 00:44:55;;;;;;;6.25;4.63;;;;;;;17.59;90.01;99431.69;1990255;81;20172;-81
2021/08/15 00:48:09;;;;;;;5.75;4.84;;;;;;;17.58;89.98;99430.84;1993737;78;22392;-80
2021/08/15 00:51:12;;;;;;;4.80;4.40;;;;;;;17.51;89.99;99421.47;1994720;81;20159;-81
2021/08/15 00:54:15;;;;;;;5.10;4.51;;;;;;;17.53;90.14;99419.63;1995208;81;20570;-81
2021/08/15 00:57:18;;;;;;;5.44;5.00;;;;;;;17.56;89.79;99424.78;1998866;81;20216;-84
2021/08/15 01:00:20;;;;;;;6.69;4.54;;;;;;;17.55;89.45;99424.84;2005433;78;20204;-81
2021/08/15 01:03:23;;;;;;;6.68;4.68;;;;;;;17.55;89.02;99422.22;1997704;81;20203;-82
2021/08/15 01:06:25;;;;;;;5.51;4.94;;;;;;;17.43;88.84;99412.97;1996164;81;20257;-82
2021/08/15 01:09:28;;;;;;;7.72;4.72;;;;;;;17.24;89.65;99414.47;1995565;81;20487;-82
2021/08/15 01:12:31;;;;;;;4.95;4.44;;;;;;;17.18;90.29;99418.13;1992647;81;20732;-80
2021/08/15 01:15:34;;;;;;;4.71;4.28;;;;;;;17.15;90.56;99412.97;1996022;81;20234;-82
2021/08/15 01:18:38;;;;;;;5.68;4.44;;;;;;;17.16;90.77;99412.06;1993946;81;20495;-82
2021/08/15 01:21:46;;;;;;;5.61;4.32;;;;;;;17.18;90.80;99408.47;1995855;81;20200;-82
2021/08/15 01:24:55;;;;;;;4.61;3.90;;;;;;;17.21;90.32;99412.78;1992122;81;20249;-81
2021/08/15 01:27:59;;;;;;;6.36;4.60;;;;;;;17.19;90.41;99412.81;1993403;81;20707;-81
2021/08/15 01:31:02;;;;;;;8.73;4.53;;;;;;;17.21;90.38;99412.78;1994515;81;20237;-82
2021/08/15 01:34:05;;;;;;;5.43;4.61;;;;;;;17.17;90.44;99406.78;1997610;81;20172;-82
2021/08/15 01:37:10;;;;;;;4.00;3.70;;;;;;;17.18;90.67;99412.88;2000108;81;20171;-83
2021/08/15 01:40:13;;;;;;;7.59;5.40;;;;;;;17.19;90.79;99404.94;1999441;81;20179;-82
2021/08/15 01:43:16;;;;;;;5.97;4.65;;;;;;;17.18;90.47;99403.22;1999757;81;20731;-82
2021/08/15 01:46:20;;;;;;;6.74;5.01;;;;;;;17.15;90.59;99402.47;1999231;81;20318;-81
2021/08/15 01:49:23;;;;;;;4.79;4.35;;;;;;;17.17;90.70;99396.28;1999538;81;20211;-81
2021/08/15 01:52:25;;;;;;;5.01;4.50;;;;;;;17.20;90.77;99397.94;2000033;81;20193;-81
2021/08/15 01:55:28;;;;;;;5.28;4.82;;;;;;;17.15;90.65;99397.22;1999449;81;20235;-81
2021/08/15 01:58:31;;;;;;;6.38;4.39;;;;;;;17.15;90.64;99397.22;1998375;81;20197;-81
2021/08/15 02:01:34;;;;;;;4.41;3.91;;;;;;;17.14;90.38;99390.28;1997000;79;21663;-81
2021/08/15 02:04:37;;;;;;;6.04;4.79;;;;;;;17.13;89.86;99394.66;1992306;81;20184;-81
2021/08/15 02:07:39;;;;;;;5.69;3.94;;;;;;;17.11;89.37;99393.84;1993552;81;20160;-81
2021/08/15 02:10:42;;;;;;;5.35;4.75;;;;;;;17.00;89.13;99398.56;1992202;81;20209;-82
2021/08/15 02:13:46;;;;;;;4.78;4.26;;;;;;;16.93;89.21;99404.91;1993545;81;20171;-82
2021/08/15 02:16:48;;;;;;;7.80;4.63;;;;;;;16.82;89.08;99404.34;1995217;79;20916;-81
2021/08/15 02:19:51;;;;;;;6.16;4.55;;;;;;;16.79;89.35;99401.81;1994777;81;20274;-82
2021/08/15 02:22:54;;;;;;;7.01;4.41;;;;;;;16.71;89.67;99399.44;1994587;81;20261;-81
2021/08/15 02:25:57;;;;;;;5.90;4.79;;;;;;;16.68;89.87;99396.03;1992716;81;20172;-81
2021/08/15 02:28:59;;;;;;;5.35;4.20;;;;;;;16.68;89.98;99391.63;1992732;81;20208;-81
2021/08/15 02:32:02;;;;;;;6.69;4.34;;;;;;;16.66;90.07;99390.78;1993258;81;20204;-82
2021/08/15 02:35:07;;;;;;;5.72;5.15;;;;;;;16.68;89.91;99388.16;1992370;81;20176;-81
2021/08/15 02:38:09;;;;;;;10.50;4.75;;;;;;;16.61;89.76;99385.69;1991891;81;20175;-81
2021/08/15 02:41:12;;;;;;;4.63;4.16;;;;;;;16.59;89.59;99386.66;1989586;81;20164;-80
2021/08/15 02:44:15;;;;;;;6.06;4.25;;;;;;;16.57;89.33;99384.06;1991111;81;20168;-80
2021/08/15 02:47:17;;;;;;;5.94;4.55;;;;;;;16.53;89.02;99385.06;1989711;79;20647;-80
2021/08/15 02:50:21;;;;;;;7.85;4.94;;;;;;;16.49;88.81;99386.03;1990213;81;20246;-80
2021/08/15 02:53:25;;;;;;;7.24;4.51;;;;;;;16.39;89.36;99384.59;1991467;81;20200;-81
2021/08/15 02:56:27;;;;;;;6.53;4.57;;;;;;;16.39;89.49;99375.88;1990160;81;20215;-81
2021/08/15 02:59:30;;;;;;;5.84;4.41;;;;;;;16.36;89.32;99373.34;1990138;81;20316;-81
2021/08/15 03:02:33;;;;;;;8.18;4.31;;;;;;;16.28;89.25;99371.78;1992768;79;20183;-81
2021/08/15 03:05:36;;;;;;;5.96;4.36;;;;;;;16.24;89.36;99366.66;1993664;81;20191;-80
2021/08/15 03:08:39;;;;;;;8.73;4.53;;;;;;;16.18;89.55;99372.94;1993069;81;20229;-81
2021/08/15 03:11:41;;;;;;;4.34;3.94;;;;;;;16.14;89.73;99367.81;1992615;81;20171;-80
2021/08/15 03:14:45;;;;;;;5.11;3.75;;;;;;;16.11;89.81;99367.91;1994037;81;21150;-80
2021/08/15 03:17:47;;;;;;;5.18;4.11;;;;;;;16.04;89.75;99367.22;1988814;79;21648;-81
2021/08/15 03:20:51;;;;;;;8.16;5.36;;;;;;;15.97;90.00;99370.88;1989087;81;20188;-81
2021/08/15 03:23:53;;;;;;;4.76;4.32;;;;;;;15.97;89.98;99371.75;1988764;81;20517;-80
2021/08/15 03:26:56;;;;;;;5.66;3.94;;;;;;;15.96;90.36;99374.41;1988227;81;20220;-81
2021/08/15 03:29:58;;;;;;;7.64;4.68;;;;;;;15.96;90.19;99374.41;1989514;81;20705;-80
2021/08/15 03:33:01;;;;;;;5.38;4.84;;;;;;;15.92;89.87;99365.78;1987217;79;20177;-80
2021/08/15 03:36:03;;;;;;;6.20;4.59;;;;;;;15.88;90.09;99373.75;1986887;81;20191;-80
2021/08/15 03:39:07;;;;;;;6.71;4.18;;;;;;;15.89;90.07;99365.88;1988319;81;20678;-80
2021/08/15 03:42:10;;;;;;;5.49;4.30;;;;;;;15.87;89.96;99367.66;1988091;81;20184;-80
2021/08/15 03:45:12;;;;;;;4.95;4.00;;;;;;;15.85;90.16;99366.00;1988125;81;20168;-80
2021/08/15 03:48:15;;;;;;;4.63;4.11;;;;;;;15.76;89.99;99369.69;1992654;78;23636;-80
2021/08/15 03:51:18;;;;;;;6.49;3.86;;;;;;;15.67;90.57;99365.56;1993628;81;20194;-80
2021/08/15 03:54:20;;;;;;;5.75;3.91;;;;;;;15.68;90.77;99366.44;1993589;81;20197;-80
2021/08/15 03:57:23;;;;;;;4.44;3.95;;;;;;;15.68;90.38;99369.91;1993039;81;20224;-80
2021/08/15 04:00:25;;;;;;;5.45;4.01;;;;;;;15.68;90.12;99366.44;1991562;79;22249;-80
2021/08/15 04:03:29;;;;;;;5.28;4.18;;;;;;;15.68;89.86;99358.56;1988587;81;20254;-80
2021/08/15 04:06:33;;;;;;;5.69;4.03;;;;;;;15.67;89.63;99354.25;1987831;81;20167;-80
2021/08/15 04:09:36;;;;;;;4.10;3.64;;;;;;;15.58;89.83;99359.66;1988213;81;20260;-81
2021/08/15 04:12:41;;;;;;;5.47;3.51;;;;;;;15.56;89.70;99345.75;1988425;81;20233;-80
2021/08/15 04:15:44;;;;;;;7.32;3.76;;;;;;;15.56;89.48;99351.00;1987151;79;21697;-80
2021/08/15 04:18:47;;;;;;;5.91;3.72;;;;;;;15.53;89.37;99351.94;1987167;81;20282;-80
2021/08/15 04:21:49;;;;;;;5.21;3.70;;;;;;;15.52;89.22;99346.75;1986970;81;20199;-79
2021/08/15 04:24:52;;;;;;;4.94;3.65;;;;;;;15.46;89.23;99339.91;1987417;81;20192;-80
2021/08/15 04:27:54;;;;;;;5.56;3.49;;;;;;;15.35;89.25;99341.91;1986975;81;20164;-80
2021/08/15 04:30:57;;;;;;;5.03;3.54;;;;;;;15.26;89.85;99342.13;1987493;78;21279;-81
2021/08/15 04:34:00;;;;;;;5.60;3.36;;;;;;;15.26;90.04;99342.13;1992024;81;20195;-80
2021/08/15 04:37:04;;;;;;;3.99;3.59;;;;;;;15.24;90.09;99338.69;1991655;81;20294;-80
2021/08/15 04:40:07;;;;;;;4.22;3.34;;;;;;;15.26;90.11;99345.63;1991652;81;20845;-80
2021/08/15 04:43:10;;;;;;;4.50;3.39;;;;;;;15.23;90.10;99344.81;1991692;81;20822;-80
2021/08/15 04:46:12;;;;;;;4.93;3.45;;;;;;;15.17;90.12;99338.00;1989332;79;25078;-79
2021/08/15 04:49:15;;;;;;;8.38;3.64;;;;;;;15.17;90.36;99337.13;1986863;81;20199;-79
2021/08/15 04:52:17;;;;;;;6.04;3.58;;;;;;;15.19;90.35;99336.19;1987231;81;20283;-80
2021/08/15 04:55:20;;;;;;;5.11;3.92;;;;;;;15.22;90.46;99335.25;1987080;81;20215;-79
2021/08/15 04:58:23;;;;;;;7.68;3.44;;;;;;;15.23;90.48;99336.97;1986661;81;20272;-79
2021/08/15 05:01:25;;;;;;;3.65;3.16;;;;;;;15.26;90.53;99335.19;1986028;79;28371;-80
2021/08/15 05:04:29;;;;;;;6.07;3.47;;;;;;;15.30;90.49;99336.81;1986830;81;20187;-80
2021/08/15 05:07:31;;;;;;;4.10;3.08;;;;;;;15.32;90.54;99339.38;1986941;81;20172;-80
2021/08/15 05:10:34;;;;;;;4.74;3.66;;;;;;;15.34;90.61;99327.13;1987405;81;20701;-79
2021/08/15 05:13:37;;;;;;;3.79;3.45;;;;;;;15.43;90.83;99335.59;1986819;81;20225;-79
2021/08/15 05:16:39;;;;;;;4.41;3.65;;;;;;;15.53;90.57;99330.13;1990903;79;24854;-78
2021/08/15 05:19:42;;;;;;;3.46;3.16;;;;;;;15.60;90.44;99322.09;1991742;81;20200;-78
2021/08/15 05:22:45;;;;;;;4.22;3.66;;;;;;;15.70;89.89;99326.22;1990788;81;20226;-78
2021/08/15 05:25:47;;;;;;;5.44;3.47;;;;;;;15.79;89.68;99332.09;1991908;81;20175;-79
2021/08/15 05:28:50;;;;;;;5.01;3.51;;;;;;;15.86;89.49;99333.66;1990714;81;20691;-78
2021/08/15 05:31:53;;;;;;;7.59;3.90;;;;;;;15.90;89.35;99336.16;1990658;81;20178;-73
2021/08/15 05:34:55;;;;;;;3.61;3.24;;;;;;;15.91;89.74;99342.25;1991762;81;20778;-73
2021/08/15 05:37:58;;;;;;;4.25;3.81;;;;;;;15.98;90.06;99339.44;1991397;81;20200;-73
2021/08/15 05:41:01;;;;;;;5.36;3.40;;;;;;;16.13;89.81;99338.13;1991058;81;20179;-72
2021/08/15 05:44:03;;;;;;;4.59;4.19;;;;;;;16.26;89.30;99338.66;1991575;81;20426;-72
2021/08/15 05:47:08;;;;;;;4.81;3.53;;;;;;;16.40;89.10;99339.13;1990796;78;20720;-72
2021/08/15 05:50:10;;;;;;;6.29;3.96;;;;;;;16.83;88.22;99338.75;1991543;81;20216;-73
2021/08/15 05:53:13;;;;;;;3.70;3.40;;;;;;;17.24;86.41;99323.47;1992452;81;20167;-74
2021/08/15 05:56:16;;;;;;;4.64;3.38;;;;;;;17.73;84.51;99337.59;1992381;81;20211;-73
2021/08/15 05:59:18;;;;;;;5.61;3.31;;;;;;;18.11;82.90;99338.88;1991277;81;20212;-73
2021/08/15 06:02:21;;;;;;;6.28;3.59;;;;;;;18.41;81.38;99335.16;1985245;79;20220;-73
2021/08/15 06:05:24;;;;;;;5.05;3.50;;;;;;;18.66;79.90;99331.59;1986310;81;20776;-73
2021/08/15 06:08:27;;;;;;;4.51;3.11;;;;;;;18.81;79.26;99336.28;1985502;81;20329;-73
2021/08/15 06:11:29;;;;;;;4.00;3.26;;;;;;;19.00;79.08;99328.53;1985807;81;20197;-73
2021/08/15 06:14:33;;;;;;;3.76;3.34;;;;;;;19.34;78.01;99333.28;1985395;81;20566;-74
2021/08/15 06:17:35;;;;;;;5.38;3.86;;;;;;;19.59;76.22;99323.50;1989430;78;20194;-74
2021/08/15 06:20:38;;;;;;;6.07;3.53;;;;;;;19.90;75.13;99330.06;1990255;81;20205;-74
2021/08/15 06:23:40;;;;;;;6.34;3.79;;;;;;;20.17;74.11;99328.88;1989670;81;20283;-74
2021/08/15 06:26:43;;;;;;;5.29;3.53;;;;;;;20.45;73.43;99327.66;1990624;81;20217;-74
2021/08/15 06:29:45;;;;;;;7.56;3.85;;;;;;;20.80;71.52;99328.66;1990353;81;20225;-74
2021/08/15 06:32:51;;;;;;;7.93;3.49;;;;;;;21.13;70.64;99326.19;1984217;78;20294;-74
2021/08/15 06:35:54;;;;;;;11.11;3.88;;;;;;;21.58;68.54;99317.81;1985390;81;20689;-74
2021/08/15 06:38:58;;;;;;;6.31;3.60;;;;;;;21.94;67.16;99319.50;1986101;81;20194;-73
2021/08/15 06:42:01;;;;;;;5.82;3.36;;;;;;;22.24;65.98;99312.63;1985401;81;20823;-73
2021/08/15 06:45:04;;;;;;;8.24;3.33;;;;;;;22.36;64.60;99316.41;1986153;81;20231;-74
2021/08/15 06:48:07;;;;;;;5.28;3.69;;;;;;;22.48;63.43;99309.63;1991995;78;20216;-74
2021/08/15 06:51:10;;;;;;;3.81;3.40;;;;;;;22.63;62.61;99313.22;1992045;81;20193;-74
2021/08/15 06:54:13;;;;;;;5.84;2.86;;;;;;;22.85;61.57;99297.88;1991298;81;20247;-74
2021/08/15 06:57:16;;;;;;;8.80;3.10;;;;;;;23.07;61.24;99292.22;1991675;81;20175;-75
2021/08/15 07:00:19;;;;;;;7.47;3.15;;;;;;;23.34;60.03;99309.19;1990997;79;21240;-74
2021/08/15 07:03:22;;;;;;;6.95;2.89;;;;;;;23.48;59.57;99298.59;1986587;81;20476;-74
2021/08/15 07:06:25;;;;;;;4.99;2.55;;;;;;;23.71;58.74;99293.81;1987276;81;20358;-75
2021/08/15 07:09:28;;;;;;;7.44;3.03;;;;;;;23.91;56.86;99295.25;1987059;81;20172;-75
2021/08/15 07:12:30;;;;;;;7.75;3.53;;;;;;;24.11;55.72;99293.09;1986595;81;20267;-75
2021/08/15 07:15:33;;;;;;;7.34;3.60;;;;;;;24.28;54.98;99293.84;1987184;79;21139;-74
2021/08/15 07:18:36;;;;;;;10.68;3.88;;;;;;;24.48;55.47;99292.63;1991989;81;20351;-74
2021/08/15 07:21:38;;;;;;;7.43;3.59;;;;;;;24.61;54.89;99297.06;1991592;81;20176;-75
2021/08/15 07:24:41;;;;;;;11.29;3.95;;;;;;;24.82;54.75;99296.66;1992125;81;20199;-76
2021/08/15 07:27:44;;;;;;;9.98;3.00;;;;;;;24.99;54.50;99309.69;1991875;81;20521;-75
2021/08/15 07:30:46;;;;;;;6.89;2.84;;;;;;;25.13;52.85;99301.69;1989800;79;21748;-75
2021/08/15 07:33:49;;;;;;;7.28;2.97;;;;;;;25.24;50.91;99303.66;1986892;81;20313;-76
2021/08/15 07:36:52;;;;;;;6.81;3.13;;;;;;;25.44;51.20;99297.00;1986980;81;20222;-75
2021/08/15 07:39:55;;;;;;;5.03;2.47;;;;;;;25.63;50.31;99289.47;1987079;81;20168;-75
2021/08/15 07:42:58;;;;;;;5.93;2.49;;;;;;;25.85;50.99;99295.09;1987033;81;20229;-75
2021/08/15 07:46:01;;;;;;;3.79;2.36;;;;;;;26.06;49.40;99291.91;1988292;79;20179;-76
2021/08/15 07:49:04;;;;;;;3.16;2.05;;;;;;;26.23;48.42;99290.72;1991881;81;20182;-75
2021/08/15 07:52:06;;;;;;;3.39;1.95;;;;;;;26.28;47.83;99293.91;1992219;81;20864;-75
2021/08/15 07:55:09;;;;;;;3.88;2.09;;;;;;;26.38;48.19;99295.81;1992235;81;20634;-75
2021/08/15 07:58:12;;;;;;;5.68;2.06;;;;;;;26.45;47.21;99294.44;1992033;81;21016;-75
2021/08/15 08:01:16;;;;;;;6.20;1.63;;;;;;;26.46;46.87;99285.50;1989341;79;20183;-75
2021/08/15 08:04:19;;;;;;;4.55;2.42;;;;;;;26.65;47.36;99279.69;1987468;81;20599;-75
2021/08/15 08:07:22;;;;;;;7.93;2.03;;;;;;;26.88;46.63;99285.16;1987265;81;20317;-74
2021/08/15 08:10:25;;;;;;;3.40;1.79;;;;;;;27.17;46.93;99283.06;1986820;81;20879;-74
2021/08/15 08:13:29;;;;;;;4.56;1.71;;;;;;;27.31;45.19;99288.22;1986773;81;20191;-74
2021/08/15 08:16:31;;;;;;;3.03;1.67;;;;;;;27.45;44.41;99287.16;1988206;78;21400;-75
2021/08/15 08:19:35;;;;;;;3.59;1.67;;;;;;;27.66;44.73;99278.44;1992256;81;20212;-74
2021/08/15 08:22:37;;;;;;;2.89;1.42;;;;;;;27.84;44.68;99277.97;1991426;81;20357;-73
2021/08/15 08:25:44;;;;;;;4.49;1.45;;;;;;;27.91;43.62;99277.38;1991398;81;20558;-77
2021/08/15 08:28:46;;;;;;;1.63;1.39;;;;;;;27.97;42.29;99274.22;1991913;81;20260;-76
2021/08/15 08:31:49;;;;;;;3.35;1.58;;;;;;;27.91;41.93;99277.38;1988560;79;20641;-76
2021/08/15 08:34:51;;;;;;;2.44;1.59;;;;;;;27.87;42.91;99261.72;1987533;81;20266;-76
2021/08/15 08:37:54;;;;;;;2.61;1.71;;;;;;;27.94;42.24;99269.13;1986473;81;20987;-75
2021/08/15 08:40:58;;;;;;;4.14;1.50;;;;;;;28.10;42.28;99267.91;1986805;81;20635;-74
2021/08/15 08:44:01;;;;;;;2.58;1.29;;;;;;;28.29;42.77;99265.53;1986287;81;20259;-74
2021/08/15 08:47:08;;;;;;;3.86;1.35;;;;;;;28.43;42.22;99269.78;1989570;79;21452;-77
2021/08/15 08:50:11;;;;;;;2.09;1.30;;;;;;;28.68;42.83;99273.97;1991960;81;20500;-75
2021/08/15 08:53:14;;;;;;;3.58;1.71;;;;;;;28.89;41.32;99274.94;1991477;81;20171;-75
2021/08/15 08:56:16;;;;;;;3.35;1.25;;;;;;;28.93;41.30;99268.38;1991670;81;20294;-75
2021/08/15 08:59:20;;;;;;;1.42;1.05;;;;;;;29.07;41.43;99270.75;1991571;81;20257;-74
2021/08/15 09:02:23;;;;;;;1.74;1.27;;;;;;;29.21;40.15;99258.06;1986580;78;21494;-75
2021/08/15 09:05:34;;;;;;;2.50;1.50;;;;;;;29.32;39.43;99256.19;1986394;81;20217;-76
2021/08/15 09:08:37;;;;;;;1.48;1.16;;;;;;;29.38;39.67;99249.47;1986047;81;20301;-74
2021/08/15 09:11:43;;;;;;;2.67;1.34;;;;;;;29.48;38.93;99251.28;1985914;81;21022;-76
2021/08/15 09:14:46;;;;;;;2.44;1.40;;;;;;;29.56;39.35;99250.63;1986302;81;20284;-75
2021/08/15 09:17:49;;;;;;;3.80;1.64;;;;;;;29.71;40.02;99252.00;1989444;78;23949;-75
2021/08/15 09:20:52;;;;;;;2.58;1.61;;;;;;;29.86;39.66;99255.19;1991242;81;20240;-75
2021/08/15 09:24:00;;;;;;;5.35;1.59;;;;;;;29.97;39.37;99241.69;1990053;81;20241;-75
2021/08/15 09:27:07;;;;;;;5.00;1.60;;;;;;;30.06;40.59;99240.94;1990457;81;20899;-75
2021/08/15 09:30:42;;;;;;;4.78;1.99;;;;;;;30.28;39.99;99236.38;1990426;81;20224;-75
2021/08/15 09:33:45;;;;;;;4.69;1.42;;;;;;;30.24;38.39;99224.25;1981025;81;20284;-75
2021/08/15 09:36:48;;;;;;;2.05;1.25;;;;;;;30.27;39.72;99227.50;1985515;81;20235;-74
2021/08/15 09:39:51;;;;;;;1.41;1.09;;;;;;;30.33;39.41;99223.41;1985395;81;20191;-74
2021/08/15 09:42:55;;;;;;;1.09;0.99;;;;;;;30.40;38.32;99229.94;1985355;81;20160;-74
2021/08/15 09:46:01;;;;;;;3.04;1.33;;;;;;;30.43;37.12;99221.63;1985156;79;20786;-74
2021/08/15 09:49:13;;;;;;;1.69;1.26;;;;;;;30.57;37.90;99218.56;1986540;81;20171;-75
2021/08/15 09:52:18;;;;;;;3.46;1.33;;;;;;;30.70;37.60;99215.63;1986057;81;20187;-74
2021/08/15 09:55:23;;;;;;;3.76;1.26;;;;;;;30.72;37.16;99212.84;1985733;81;20179;-74
2021/08/15 09:58:28;;;;;;;2.29;1.31;;;;;;;30.76;37.95;99214.25;1987004;81;20257;-74
2021/08/15 10:01:31;;;;;;;1.11;1.00;;;;;;;30.84;37.21;99211.69;1986888;78;22298;-73
2021/08/15 10:04:34;;;;;;;1.46;1.16;;;;;;;30.94;37.11;99208.06;1990525;81;20171;-75
2021/08/15 10:07:37;;;;;;;1.24;1.09;;;;;;;31.14;37.83;99210.72;1990598;81;20247;-75
2021/08/15 10:10:43;;;;;;;1.88;1.11;;;;;;;30.98;35.89;99204.09;1991859;81;20175;-76
2021/08/15 10:13:46;;;;;;;2.46;1.10;;;;;;;31.02;37.69;99199.28;1987564;81;21003;-76
2021/08/15 10:16:54;;;;;;;2.67;1.23;;;;;;;31.06;36.69;99194.47;1986625;79;21264;-74
2021/08/15 10:20:04;;;;;;;2.01;1.20;;;;;;;31.21;36.83;99193.94;1985185;81;20199;-74
2021/08/15 10:23:11;;;;;;;1.13;1.02;;;;;;;31.32;35.42;99194.78;1986030;81;20269;-75
2021/08/15 10:26:25;;;;;;;2.48;1.00;;;;;;;31.23;34.71;99188.44;1985613;81;20280;-77
2021/08/15 10:29:41;;;;;;;1.48;1.05;;;;;;;31.19;35.96;99184.34;1985742;81;20196;-74
2021/08/15 10:32:56;;;;;;;4.55;1.20;;;;;;;31.35;35.16;99187.28;1989878;78;20692;-74
2021/08/15 10:36:19;;;;;;;2.31;1.74;;;;;;;31.40;34.41;99184.16;1985151;81;20197;-75
2021/08/15 10:39:35;;;;;;;3.29;1.51;;;;;;;31.50;34.89;99180.50;1985884;81;20614;-75
2021/08/15 10:42:46;;;;;;;4.05;1.00;;;;;;;31.63;33.49;99171.28;1983880;81;20200;-74
2021/08/15 10:46:08;;;;;;;2.29;1.27;;;;;;;31.61;34.42;99174.13;1983729;78;22391;-74
2021/08/15 10:49:11;;;;;;;3.95;1.79;;;;;;;31.67;33.25;99170.00;1985484;81;20262;-74
2021/08/15 10:52:37;;;;;;;2.22;1.27;;;;;;;31.68;32.81;99169.84;1986270;81;20163;-74
2021/08/15 10:55:42;;;;;;;1.40;1.10;;;;;;;31.25;31.69;99162.34;1985843;81;20329;-74
2021/08/15 10:58:47;;;;;;;4.70;1.80;;;;;;;31.41;35.69;99167.94;1986288;81;20199;-74
2021/08/15 11:01:50;;;;;;;5.51;1.61;;;;;;;31.59;32.74;99159.97;1984812;79;22505;-74
2021/08/15 11:04:57;;;;;;;2.21;1.51;;;;;;;31.61;32.48;99149.97;1986613;81;20291;-74
2021/08/15 11:07:59;;;;;;;2.56;1.39;;;;;;;31.22;32.15;99146.50;1985866;81;20190;-75
2021/08/15 11:11:06;;;;;;;1.91;1.27;;;;;;;31.37;33.73;99138.84;1986498;81;20205;-75
2021/08/15 11:14:21;;;;;;;3.82;1.63;;;;;;;31.54;34.53;99133.56;1986205;81;20199;-75
2021/08/15 11:17:25;;;;;;;2.29;1.30;;;;;;;31.72;35.44;99127.44;1986303;78;21985;-77
2021/08/15 11:20:57;;;;;;;1.63;1.31;;;;;;;31.76;34.09;99123.47;1985962;81;20792;-76
2021/08/15 11:23:59;;;;;;;2.83;1.38;;;;;;;31.51;33.46;99117.75;1985087;81;20184;-76
2021/08/15 11:27:03;;;;;;;1.89;1.33;;;;;;;31.65;35.42;99118.28;1986576;81;20307;-77
2021/08/15 11:30:18;;;;;;;2.42;1.65;;;;;;;31.51;34.95;99116.91;1985251;81;20555;-76
2021/08/15 11:33:22;;;;;;;3.84;2.38;;;;;;;31.72;35.80;99112.19;1986585;79;24388;-77
2021/08/15 11:36:25;;;;;;;3.56;2.51;;;;;;;31.89;34.98;99107.88;1990755;81;20248;-76
2021/08/15 11:39:33;;;;;;;6.03;2.42;;;;;;;32.08;35.80;99112.31;1990992;81;20204;-77
2021/08/15 11:42:35;;;;;;;2.58;2.00;;;;;;;32.35;35.05;99101.56;1990684;81;20215;-74
2021/08/15 11:45:43;;;;;;;4.14;1.67;;;;;;;32.30;34.41;99095.78;1988234;79;20780;-74
2021/08/15 11:48:46;;;;;;;;;;;;;;;32.23;35.53;99091.16;1985677;81;20792;-75
2021/08/15 11:51:49;;;;;;;3.03;1.71;;;;;;;32.12;34.29;99092.19;1986233;81;20076;-75
2021/08/15 11:54:53;;;;;;;2.97;1.70;;;;;;;32.09;34.89;99081.75;1985688;81;20196;-75
2021/08/15 11:58:00;;;;;;;2.29;1.48;;;;;;;31.90;34.68;99074.66;1986377;81;20219;-75
2021/08/15 12:01:07;;;;;;;2.14;1.88;;;;;;;31.94;36.37;99075.19;1987082;78;21255;-75
2021/08/15 12:04:13;;;;;;;2.81;1.61;;;;;;;31.76;35.77;99073.31;1991051;81;20171;-75
2021/08/15 12:07:23;;;;;;;3.40;1.50;;;;;;;31.73;36.20;99070.94;1991713;81;20206;-75
2021/08/15 12:10:34;;;;;;;3.35;1.75;;;;;;;31.76;35.33;99067.94;1991119;81;20179;-74
2021/08/15 12:13:38;;;;;;;2.59;1.81;;;;;;;31.83;37.21;99073.56;1990825;81;20291;-75
2021/08/15 12:16:52;;;;;;;3.17;1.86;;;;;;;31.80;35.20;99069.34;1988541;78;54160;-75
2021/08/15 12:20:21;;;;;;;2.80;1.64;;;;;;;31.85;35.61;99061.69;1990961;81;20182;-75
2021/08/15 12:23:24;;;;;;;2.42;1.70;;;;;;;31.65;35.34;99057.38;1992276;81;20223;-75
2021/08/15 12:26:29;;;;;;;2.20;1.60;;;;;;;31.46;35.56;99058.31;1990895;81;20217;-74
2021/08/15 12:29:44;;;;;;;3.36;1.71;;;;;;;31.71;37.48;99055.94;1991176;81;20208;-75
2021/08/15 12:32:46;;;;;;;2.04;1.55;;;;;;;31.81;37.21;99043.34;1985082;79;22620;-76
2021/08/15 12:35:49;;;;;;;1.70;1.60;;;;;;;31.99;36.38;99043.38;1985851;81;20200;-76
2021/08/15 12:39:03;;;;;;;2.08;1.63;;;;;;;31.85;36.42;99045.56;1986259;81;20180;-75
2021/08/15 12:42:21;;;;;;;3.86;1.80;;;;;;;31.98;36.05;99033.63;1986519;81;20505;-76
2021/08/15 12:45:40;;;;;;;4.28;2.03;;;;;;;32.13;37.30;99038.28;1985874;81;20269;-76
2021/08/15 12:48:43;;;;;;;2.88;1.74;;;;;;;32.30;35.88;99033.97;1993003;81;20208;-76
2021/08/15 12:51:46;;;;;;;2.85;1.73;;;;;;;32.41;35.79;99027.53;1990995;81;20193;-76
2021/08/15 12:55:17;;;;;;;3.08;1.61;;;;;;;32.22;36.34;99030.34;1991365;81;20175;-77
2021/08/15 12:58:20;;;;;;;3.46;1.80;;;;;;;32.07;37.56;99025.47;1991454;81;20215;-77
2021/08/15 13:01:24;;;;;;;1.95;1.61;;;;;;;31.95;38.34;99017.78;1990243;78;22115;-78
2021/08/15 13:04:27;;;;;;;1.91;1.38;;;;;;;31.83;37.28;99007.28;1991822;81;20709;-80
2021/08/15 13:07:30;;;;;;;1.89;1.74;;;;;;;31.83;37.66;99009.97;1990606;81;20231;-79
2021/08/15 13:10:34;;;;;;;3.75;1.74;;;;;;;32.05;37.61;98997.94;1991700;81;21029;-78
2021/08/15 13:13:37;;;;;;;1.65;1.50;;;;;;;32.26;37.02;98991.41;1991716;81;20171;-77
2021/08/15 13:16:39;;;;;;;2.80;1.42;;;;;;;32.39;36.17;98986.53;1987009;79;21699;-78
2021/08/15 13:19:43;;;;;;;4.05;2.00;;;;;;;32.44;35.62;98984.19;1986535;81;20244;-78
2021/08/15 13:22:49;;;;;;;8.51;1.77;;;;;;;32.41;36.10;98974.59;1985488;81;20171;-80
2021/08/15 13:25:53;;;;;;;1.81;1.69;;;;;;;32.27;38.21;98974.31;1986189;81;20257;-78
2021/08/15 13:28:56;;;;;;;2.39;1.54;;;;;;;32.26;36.48;98968.06;1985789;81;20180;-80
2021/08/15 13:31:59;;;;;;;2.76;1.56;;;;;;;32.35;36.55;98960.97;1988040;81;22213;-78
2021/08/15 13:35:03;;;;;;;2.90;1.40;;;;;;;32.38;36.40;98953.41;1994892;81;20198;-79
2021/08/15 13:38:05;;;;;;;3.95;1.41;;;;;;;32.15;37.33;98953.03;1995217;81;20225;-79
2021/08/15 13:41:08;;;;;;;1.90;1.30;;;;;;;31.96;36.71;98955.00;1994928;81;20223;-78
2021/08/15 13:44:12;;;;;;;1.52;1.10;;;;;;;31.91;37.51;98954.63;1995607;81;21031;-79
2021/08/15 13:47:16;;;;;;;2.39;1.51;;;;;;;32.01;37.84;98956.25;1990969;78;20928;-78
2021/08/15 13:50:19;;;;;;;3.19;1.27;;;;;;;32.00;35.73;98945.69;1990437;81;20175;-78
2021/08/15 13:53:21;;;;;;;3.54;1.45;;;;;;;32.04;37.05;98949.72;1990629;81;20289;-79
2021/08/15 13:56:24;;;;;;;3.26;1.40;;;;;;;32.07;37.42;98947.56;1989939;81;20283;-79
2021/08/15 13:59:50;;;;;;;2.42;1.23;;;;;;;31.97;36.69;98943.31;1990886;81;20649;-77
2021/08/15 14:02:53;;;;;;;5.21;1.36;;;;;;;31.98;36.15;98936.94;1994329;78;21196;-78
2021/08/15 14:05:56;;;;;;;2.79;1.56;;;;;;;31.93;35.90;98923.94;1995993;81;20227;-78
2021/08/15 14:08:58;;;;;;;2.90;1.41;;;;;;;32.01;36.84;98926.72;1995943;81;20975;-78
2021/08/15 14:12:02;;;;;;;2.25;1.73;;;;;;;32.13;37.83;98922.78;1996604;81;20255;-78
2021/08/15 14:15:05;;;;;;;3.90;1.60;;;;;;;32.12;36.68;98920.25;1996955;81;20334;-79
2021/08/15 14:18:09;;;;;;;2.34;1.40;;;;;;;32.01;36.81;98907.91;1991629;78;31975;-79
2021/08/15 14:21:13;;;;;;;3.05;1.50;;;;;;;32.04;37.21;98912.97;1991543;81;20717;-79
2021/08/15 14:24:16;;;;;;;3.72;1.36;;;;;;;31.91;37.78;98907.13;1992222;81;20226;-79
2021/08/15 14:27:21;;;;;;;2.05;1.34;;;;;;;32.07;37.59;98903.75;1991756;81;20292;-79
2021/08/15 14:30:24;;;;;;;1.79;1.60;;;;;;;32.03;37.91;98902.38;1991407;78;20201;-77